sensor_id;sensor_type;location;lat;lon;timestamp;pressure;altitude;pressure_sealevel;temperature
45976;BMP280;31696;42.668;23.322;2023-06-22T00:01:02;95115.22;;;19.65
45976;BMP280;31696;42.668;23.322;2023-06-22T00:03:02;95117.72;;;19.75
45976;BMP280;31696;42.668;23.322;2023-06-22T00:05:03;95110.41;;;19.62
45976;BMP280;31696;42.668;23.322;2023-06-22T00:07:03;95113.00;;;19.48
45976;BMP280;31696;42.668;23.322;2023-06-22T00:09:04;95113.75;;;19.51
45976;BMP280;31696;42.668;23.322;2023-06-22T00:11:06;95103.56;;;19.45
45976;BMP280;31696;42.668;23.322;2023-06-22T00:13:07;95156.97;;;19.34
45976;BMP280;31696;42.668;23.322;2023-06-22T00:15:08;95161.97;;;19.53
45976;BMP280;31696;42.668;23.322;2023-06-22T00:17:08;95163.16;;;19.39
45976;BMP280;31696;42.668;23.322;2023-06-22T00:19:09;95160.03;;;19.42
45976;BMP280;31696;42.668;23.322;2023-06-22T00:21:11;95159.56;;;19.46
45976;BMP280;31696;42.668;23.322;2023-06-22T00:23:12;95162.69;;;19.42
45976;BMP280;31696;42.668;23.322;2023-06-22T00:25:16;95154.78;;;19.42
45976;BMP280;31696;42.668;23.322;2023-06-22T00:27:16;95151.72;;;19.34
45976;BMP280;31696;42.668;23.322;2023-06-22T00:29:16;95139.19;;;19.46
45976;BMP280;31696;42.668;23.322;2023-06-22T00:31:18;95138.06;;;19.49
45976;BMP280;31696;42.668;23.322;2023-06-22T00:33:19;95134.97;;;19.41
45976;BMP280;31696;42.668;23.322;2023-06-22T00:35:20;95137.97;;;19.24
45976;BMP280;31696;42.668;23.322;2023-06-22T00:37:20;95137.38;;;19.37
45976;BMP280;31696;42.668;23.322;2023-06-22T00:39:27;95138.56;;;19.34
45976;BMP280;31696;42.668;23.322;2023-06-22T00:41:27;95132.94;;;19.28
45976;BMP280;31696;42.668;23.322;2023-06-22T00:43:28;95128.09;;;19.36
45976;BMP280;31696;42.668;23.322;2023-06-22T00:45:29;95136.13;;;19.38
45976;BMP280;31696;42.668;23.322;2023-06-22T00:47:29;95136.59;;;19.35
45976;BMP280;31696;42.668;23.322;2023-06-22T00:49:30;95135.69;;;19.30
45976;BMP280;31696;42.668;23.322;2023-06-22T00:51:30;95136.25;;;19.29
45976;BMP280;31696;42.668;23.322;2023-06-22T00:53:31;95148.28;;;19.20
45976;BMP280;31696;42.668;23.322;2023-06-22T00:55:35;95140.03;;;19.26
45976;BMP280;31696;42.668;23.322;2023-06-22T00:57:37;95136.59;;;19.35
45976;BMP280;31696;42.668;23.322;2023-06-22T00:59:37;95138.41;;;19.32
45976;BMP280;31696;42.668;23.322;2023-06-22T01:01:39;95143.47;;;19.28
45976;BMP280;31696;42.668;23.322;2023-06-22T01:03:41;95146.22;;;19.30
45976;BMP280;31696;42.668;23.322;2023-06-22T01:05:41;95162.13;;;19.32
45976;BMP280;31696;42.668;23.322;2023-06-22T01:07:45;95155.38;;;19.29
45976;BMP280;31696;42.668;23.322;2023-06-22T01:09:51;95155.63;;;19.22
45976;BMP280;31696;42.668;23.322;2023-06-22T01:12:04;95143.25;;;19.13
45976;BMP280;31696;42.668;23.322;2023-06-22T01:14:14;95148.03;;;19.28
45976;BMP280;31696;42.668;23.322;2023-06-22T01:16:17;95145.53;;;19.07
45976;BMP280;31696;42.668;23.322;2023-06-22T01:18:20;95148.72;;;19.05
45976;BMP280;31696;42.668;23.322;2023-06-22T01:20:25;95156.88;;;19.21
45976;BMP280;31696;42.668;23.322;2023-06-22T01:22:30;95143.34;;;19.26
45976;BMP280;31696;42.668;23.322;2023-06-22T01:24:32;95158.59;;;19.16
45976;BMP280;31696;42.668;23.322;2023-06-22T01:26:40;95153.78;;;19.24
45976;BMP280;31696;42.668;23.322;2023-06-22T01:28:49;95161.31;;;19.18
45976;BMP280;31696;42.668;23.322;2023-06-22T01:30:50;95152.41;;;19.23
45976;BMP280;31696;42.668;23.322;2023-06-22T01:33:01;95159.63;;;19.11
45976;BMP280;31696;42.668;23.322;2023-06-22T01:35:03;95162.09;;;19.09
45976;BMP280;31696;42.668;23.322;2023-06-22T01:37:05;95159.28;;;19.17
45976;BMP280;31696;42.668;23.322;2023-06-22T01:39:06;95157.88;;;19.16
45976;BMP280;31696;42.668;23.322;2023-06-22T01:41:07;95163.72;;;18.91
45976;BMP280;31696;42.668;23.322;2023-06-22T01:43:07;95171.41;;;18.99
45976;BMP280;31696;42.668;23.322;2023-06-22T01:45:10;95173.22;;;18.96
45976;BMP280;31696;42.668;23.322;2023-06-22T01:47:11;95175.41;;;19.00
45976;BMP280;31696;42.668;23.322;2023-06-22T01:49:14;95170.13;;;19.00
45976;BMP280;31696;42.668;23.322;2023-06-22T01:51:14;95164.28;;;18.89
45976;BMP280;31696;42.668;23.322;2023-06-22T01:53:15;95174.81;;;18.89
45976;BMP280;31696;42.668;23.322;2023-06-22T01:55:16;95176.16;;;18.79
45976;BMP280;31696;42.668;23.322;2023-06-22T01:57:16;95179.16;;;18.85
45976;BMP280;31696;42.668;23.322;2023-06-22T01:59:32;95176.53;;;18.85
45976;BMP280;31696;42.668;23.322;2023-06-22T02:01:36;95180.78;;;18.90
45976;BMP280;31696;42.668;23.322;2023-06-22T02:03:52;95173.97;;;18.64
45976;BMP280;31696;42.668;23.322;2023-06-22T02:06:01;95180.28;;;18.82
45976;BMP280;31696;42.668;23.322;2023-06-22T02:10:08;95180.78;;;18.90
45976;BMP280;31696;42.668;23.322;2023-06-22T02:12:10;95189.22;;;19.00
45976;BMP280;31696;42.668;23.322;2023-06-22T02:14:11;95179.75;;;18.95
45976;BMP280;31696;42.668;23.322;2023-06-22T02:16:13;95187.16;;;18.87
45976;BMP280;31696;42.668;23.322;2023-06-22T02:18:14;95169.66;;;18.80
45976;BMP280;31696;42.668;23.322;2023-06-22T02:20:15;95169.53;;;18.78
45976;BMP280;31696;42.668;23.322;2023-06-22T02:22:15;95172.28;;;18.80
45976;BMP280;31696;42.668;23.322;2023-06-22T02:24:18;95173.53;;;18.79
45976;BMP280;31696;42.668;23.322;2023-06-22T02:26:18;95172.97;;;18.80
45976;BMP280;31696;42.668;23.322;2023-06-22T02:28:18;95174.00;;;18.75
45976;BMP280;31696;42.668;23.322;2023-06-22T02:30:19;95170.69;;;18.75
45976;BMP280;31696;42.668;23.322;2023-06-22T02:32:19;95162.94;;;18.77
45976;BMP280;31696;42.668;23.322;2023-06-22T02:34:23;95167.25;;;18.72
45976;BMP280;31696;42.668;23.322;2023-06-22T02:36:25;95157.91;;;18.92
45976;BMP280;31696;42.668;23.322;2023-06-22T02:38:27;95165.91;;;18.83
45976;BMP280;31696;42.668;23.322;2023-06-22T02:40:27;95166.34;;;18.68
45976;BMP280;31696;42.668;23.322;2023-06-22T02:42:30;95171.59;;;18.68
45976;BMP280;31696;42.668;23.322;2023-06-22T02:44:30;95129.78;;;18.39
45976;BMP280;31696;42.668;23.322;2023-06-22T02:46:31;95122.44;;;18.38
45976;BMP280;31696;42.668;23.322;2023-06-22T02:48:31;95107.69;;;18.33
45976;BMP280;31696;42.668;23.322;2023-06-22T02:50:32;95129.56;;;18.35
45976;BMP280;31696;42.668;23.322;2023-06-22T02:52:33;95123.59;;;18.35
45976;BMP280;31696;42.668;23.322;2023-06-22T02:54:34;95137.03;;;18.17
45976;BMP280;31696;42.668;23.322;2023-06-22T02:56:34;95112.03;;;18.28
45976;BMP280;31696;42.668;23.322;2023-06-22T02:58:36;95118.13;;;18.31
45976;BMP280;31696;42.668;23.322;2023-06-22T03:00:41;95111.50;;;18.41
45976;BMP280;31696;42.668;23.322;2023-06-22T03:02:42;95117.47;;;18.09
45976;BMP280;31696;42.668;23.322;2023-06-22T03:04:42;95120.63;;;17.96
45976;BMP280;31696;42.668;23.322;2023-06-22T03:06:43;95117.47;;;18.09
45976;BMP280;31696;42.668;23.322;2023-06-22T03:08:44;95119.56;;;18.22
45976;BMP280;31696;42.668;23.322;2023-06-22T03:10:45;95124.25;;;18.12
45976;BMP280;31696;42.668;23.322;2023-06-22T03:12:45;95120.59;;;18.17
45976;BMP280;31696;42.668;23.322;2023-06-22T03:14:46;95136.16;;;18.24
45976;BMP280;31696;42.668;23.322;2023-06-22T03:16:46;95134.22;;;18.25
45976;BMP280;31696;42.668;23.322;2023-06-22T03:18:47;95139.59;;;18.27
45976;BMP280;31696;42.668;23.322;2023-06-22T03:20:47;95145.41;;;18.25
45976;BMP280;31696;42.668;23.322;2023-06-22T03:22:47;95143.88;;;18.22
45976;BMP280;31696;42.668;23.322;2023-06-22T03:24:48;95141.25;;;18.22
45976;BMP280;31696;42.668;23.322;2023-06-22T03:26:49;95149.41;;;18.26
45976;BMP280;31696;42.668;23.322;2023-06-22T03:28:49;95143.13;;;18.32
45976;BMP280;31696;42.668;23.322;2023-06-22T03:30:50;95142.78;;;18.25
45976;BMP280;31696;42.668;23.322;2023-06-22T03:32:51;95142.47;;;18.31
45976;BMP280;31696;42.668;23.322;2023-06-22T03:34:51;95160.03;;;18.28
45976;BMP280;31696;42.668;23.322;2023-06-22T03:36:51;95157.31;;;18.38
45976;BMP280;31696;42.668;23.322;2023-06-22T03:38:52;95165.53;;;18.21
45976;BMP280;31696;42.668;23.322;2023-06-22T03:40:52;95155.69;;;18.21
45976;BMP280;31696;42.668;23.322;2023-06-22T03:42:54;95157.28;;;18.26
45976;BMP280;31696;42.668;23.322;2023-06-22T03:44:54;95162.56;;;18.26
45976;BMP280;31696;42.668;23.322;2023-06-22T03:46:55;95160.13;;;18.19
45976;BMP280;31696;42.668;23.322;2023-06-22T03:48:55;95166.00;;;18.29
45976;BMP280;31696;42.668;23.322;2023-06-22T03:50:56;95173.78;;;18.39
45976;BMP280;31696;42.668;23.322;2023-06-22T03:52:56;95167.41;;;18.42
45976;BMP280;31696;42.668;23.322;2023-06-22T03:54:56;95175.28;;;18.42
45976;BMP280;31696;42.668;23.322;2023-06-22T03:56:57;95195.72;;;18.32
45976;BMP280;31696;42.668;23.322;2023-06-22T03:58:58;95180.44;;;18.40
45976;BMP280;31696;42.668;23.322;2023-06-22T04:00:58;95172.47;;;18.49
45976;BMP280;31696;42.668;23.322;2023-06-22T04:03:00;95174.72;;;18.43
45976;BMP280;31696;42.668;23.322;2023-06-22T04:05:00;95180.44;;;18.40
45976;BMP280;31696;42.668;23.322;2023-06-22T04:07:00;95184.69;;;18.45
45976;BMP280;31696;42.668;23.322;2023-06-22T04:09:01;95180.56;;;18.42
45976;BMP280;31696;42.668;23.322;2023-06-22T04:11:01;95172.09;;;18.43
45976;BMP280;31696;42.668;23.322;2023-06-22T04:13:02;95167.88;;;18.50
45976;BMP280;31696;42.668;23.322;2023-06-22T04:15:02;95166.75;;;18.53
45976;BMP280;31696;42.668;23.322;2023-06-22T04:17:03;95166.19;;;18.54
45976;BMP280;31696;42.668;23.322;2023-06-22T04:19:04;95157.88;;;18.58
45976;BMP280;31696;42.668;23.322;2023-06-22T04:21:04;95147.09;;;18.54
45976;BMP280;31696;42.668;23.322;2023-06-22T04:23:05;95146.88;;;18.61
45976;BMP280;31696;42.668;23.322;2023-06-22T04:25:05;95139.75;;;18.64
45976;BMP280;31696;42.668;23.322;2023-06-22T04:27:07;95155.13;;;18.79
45976;BMP280;31696;42.668;23.322;2023-06-22T04:29:07;95151.72;;;18.88
45976;BMP280;31696;42.668;23.322;2023-06-22T04:31:11;95141.63;;;18.84
45976;BMP280;31696;42.668;23.322;2023-06-22T04:33:13;95135.25;;;18.99
45976;BMP280;31696;42.668;23.322;2023-06-22T04:35:13;95147.38;;;18.81
45976;BMP280;31696;42.668;23.322;2023-06-22T04:37:15;95157.53;;;18.75
45976;BMP280;31696;42.668;23.322;2023-06-22T04:39:16;95149.63;;;18.75
45976;BMP280;31696;42.668;23.322;2023-06-22T04:41:16;95152.03;;;18.82
45976;BMP280;31696;42.668;23.322;2023-06-22T04:43:23;95147.22;;;18.79
45976;BMP280;31696;42.668;23.322;2023-06-22T04:45:23;95149.88;;;18.90
45976;BMP280;31696;42.668;23.322;2023-06-22T04:47:24;95155.38;;;18.94
45976;BMP280;31696;42.668;23.322;2023-06-22T04:49:24;95148.06;;;18.93
45976;BMP280;31696;42.668;23.322;2023-06-22T04:51:32;95153.91;;;19.03
45976;BMP280;31696;42.668;23.322;2023-06-22T04:53:33;95161.00;;;19.12
45976;BMP280;31696;42.668;23.322;2023-06-22T04:55:33;95167.06;;;19.03
45976;BMP280;31696;42.668;23.322;2023-06-22T04:57:34;95166.47;;;19.16
45976;BMP280;31696;42.668;23.322;2023-06-22T04:59:34;95168.41;;;19.16
45976;BMP280;31696;42.668;23.322;2023-06-22T05:01:34;95165.44;;;19.21
45976;BMP280;31696;42.668;23.322;2023-06-22T05:03:35;95183.41;;;19.36
45976;BMP280;31696;42.668;23.322;2023-06-22T05:05:36;95161.28;;;19.41
45976;BMP280;31696;42.668;23.322;2023-06-22T05:07:37;95160.16;;;19.44
45976;BMP280;31696;42.668;23.322;2023-06-22T05:09:37;95170.94;;;19.48
45976;BMP280;31696;42.668;23.322;2023-06-22T05:11:38;95153.75;;;19.47
45976;BMP280;31696;42.668;23.322;2023-06-22T05:13:38;95161.28;;;19.53
45976;BMP280;31696;42.668;23.322;2023-06-22T05:15:38;95165.38;;;19.67
45976;BMP280;31696;42.668;23.322;2023-06-22T05:17:40;95162.41;;;19.61
45976;BMP280;31696;42.668;23.322;2023-06-22T05:19:42;95150.19;;;19.54
45976;BMP280;31696;42.668;23.322;2023-06-22T05:21:48;95152.34;;;19.58
45976;BMP280;31696;42.668;23.322;2023-06-22T05:23:48;95164.44;;;19.75
45976;BMP280;31696;42.668;23.322;2023-06-22T05:25:49;95162.25;;;19.83
45976;BMP280;31696;42.668;23.322;2023-06-22T05:27:49;95167.63;;;19.85
45976;BMP280;31696;42.668;23.322;2023-06-22T05:29:51;95163.69;;;19.97
45976;BMP280;31696;42.668;23.322;2023-06-22T05:31:52;95167.44;;;20.06
45976;BMP280;31696;42.668;23.322;2023-06-22T05:33:53;95177.34;;;20.19
45976;BMP280;31696;42.668;23.322;2023-06-22T05:35:53;95178.66;;;20.06
45976;BMP280;31696;42.668;23.322;2023-06-22T05:37:54;95182.88;;;20.11
45976;BMP280;31696;42.668;23.322;2023-06-22T05:39:55;95181.88;;;20.30
45976;BMP280;31696;42.668;23.322;2023-06-22T05:41:57;95180.19;;;20.48
45976;BMP280;31696;42.668;23.322;2023-06-22T05:43:57;95183.34;;;20.58
45976;BMP280;31696;42.668;23.322;2023-06-22T05:45:58;95201.56;;;20.79
45976;BMP280;31696;42.668;23.322;2023-06-22T05:47:58;95195.59;;;20.79
45976;BMP280;31696;42.668;23.322;2023-06-22T05:49:59;95199.41;;;20.89
45976;BMP280;31696;42.668;23.322;2023-06-22T05:51:59;95191.44;;;21.01
45976;BMP280;31696;42.668;23.322;2023-06-22T05:54:00;95202.78;;;21.03
45976;BMP280;31696;42.668;23.322;2023-06-22T05:56:00;95201.22;;;21.26
45976;BMP280;31696;42.668;23.322;2023-06-22T05:58:00;95195.63;;;21.47
45976;BMP280;31696;42.668;23.322;2023-06-22T06:00:01;95197.09;;;21.50
45976;BMP280;31696;42.668;23.322;2023-06-22T06:02:05;95201.56;;;21.61
45976;BMP280;31696;42.668;23.322;2023-06-22T06:04:06;95196.31;;;21.47
45976;BMP280;31696;42.668;23.322;2023-06-22T06:06:08;95189.28;;;21.81
45976;BMP280;31696;42.668;23.322;2023-06-22T06:08:08;95190.19;;;22.15
45976;BMP280;31696;42.668;23.322;2023-06-22T06:10:10;95185.59;;;22.46
45976;BMP280;31696;42.668;23.322;2023-06-22T06:12:11;95189.72;;;22.81
45976;BMP280;31696;42.668;23.322;2023-06-22T06:14:11;95185.38;;;23.20
45976;BMP280;31696;42.668;23.322;2023-06-22T06:16:12;95177.63;;;23.42
45976;BMP280;31696;42.668;23.322;2023-06-22T06:18:12;95184.03;;;23.70
45976;BMP280;31696;42.668;23.322;2023-06-22T06:20:13;95179.78;;;23.98
45976;BMP280;31696;42.668;23.322;2023-06-22T06:22:13;95186.53;;;24.39
45976;BMP280;31696;42.668;23.322;2023-06-22T06:24:13;95180.63;;;24.60
45976;BMP280;31696;42.668;23.322;2023-06-22T06:26:14;95175.91;;;24.97
45976;BMP280;31696;42.668;23.322;2023-06-22T06:28:16;95177.19;;;25.59
45976;BMP280;31696;42.668;23.322;2023-06-22T06:30:17;95169.63;;;25.73
45976;BMP280;31696;42.668;23.322;2023-06-22T06:32:17;95185.78;;;26.27
45976;BMP280;31696;42.668;23.322;2023-06-22T06:34:18;95187.25;;;26.32
45976;BMP280;31696;42.668;23.322;2023-06-22T06:36:19;95184.66;;;26.10
45976;BMP280;31696;42.668;23.322;2023-06-22T06:38:19;95173.38;;;26.61
45976;BMP280;31696;42.668;23.322;2023-06-22T06:40:20;95174.94;;;26.70
45976;BMP280;31696;42.668;23.322;2023-06-22T06:42:20;95171.91;;;26.56
45976;BMP280;31696;42.668;23.322;2023-06-22T06:44:23;95165.41;;;25.88
45976;BMP280;31696;42.668;23.322;2023-06-22T06:46:23;95164.97;;;25.74
45976;BMP280;31696;42.668;23.322;2023-06-22T06:48:23;95160.91;;;25.26
45976;BMP280;31696;42.668;23.322;2023-06-22T06:50:24;95165.41;;;25.21
45976;BMP280;31696;42.668;23.322;2023-06-22T06:52:25;95163.34;;;25.20
45976;BMP280;31696;42.668;23.322;2023-06-22T06:54:25;95157.19;;;25.56
45976;BMP280;31696;42.668;23.322;2023-06-22T06:56:27;95157.00;;;25.29
45976;BMP280;31696;42.668;23.322;2023-06-22T06:58:28;95164.72;;;25.88
45976;BMP280;31696;42.668;23.322;2023-06-22T07:00:28;95163.81;;;25.79
45976;BMP280;31696;42.668;23.322;2023-06-22T07:02:29;95172.25;;;26.68
45976;BMP280;31696;42.668;23.322;2023-06-22T07:04:29;95176.94;;;27.54
45976;BMP280;31696;42.668;23.322;2023-06-22T07:06:29;95177.66;;;27.89
45976;BMP280;31696;42.668;23.322;2023-06-22T07:08:32;95178.41;;;27.91
45976;BMP280;31696;42.668;23.322;2023-06-22T07:10:32;95171.66;;;27.88
45976;BMP280;31696;42.668;23.322;2023-06-22T07:12:33;95166.22;;;27.84
45976;BMP280;31696;42.668;23.322;2023-06-22T07:14:33;95165.81;;;27.96
45976;BMP280;31696;42.668;23.322;2023-06-22T07:16:33;95152.28;;;27.88
45976;BMP280;31696;42.668;23.322;2023-06-22T07:18:34;95153.88;;;27.37
45976;BMP280;31696;42.668;23.322;2023-06-22T07:20:34;95154.81;;;27.80
45976;BMP280;31696;42.668;23.322;2023-06-22T07:22:35;95153.06;;;27.60
45976;BMP280;31696;42.668;23.322;2023-06-22T07:24:35;95154.19;;;27.51
45976;BMP280;31696;42.668;23.322;2023-06-22T07:26:37;95161.41;;;27.77
45976;BMP280;31696;42.668;23.322;2023-06-22T07:28:37;95138.72;;;27.78
45976;BMP280;31696;42.668;23.322;2023-06-22T07:30:38;95157.34;;;27.74
45976;BMP280;31696;42.668;23.322;2023-06-22T07:32:38;95153.41;;;27.77
45976;BMP280;31696;42.668;23.322;2023-06-22T07:34:38;95148.00;;;28.08
45976;BMP280;31696;42.668;23.322;2023-06-22T07:36:39;95154.78;;;28.13
45976;BMP280;31696;42.668;23.322;2023-06-22T07:38:39;95157.34;;;28.43
45976;BMP280;31696;42.668;23.322;2023-06-22T07:40:40;95152.44;;;28.67
45976;BMP280;31696;42.668;23.322;2023-06-22T07:42:41;95144.09;;;28.49
45976;BMP280;31696;42.668;23.322;2023-06-22T07:44:42;95158.16;;;28.51
45976;BMP280;31696;42.668;23.322;2023-06-22T07:46:42;95156.06;;;28.46
45976;BMP280;31696;42.668;23.322;2023-06-22T07:48:43;95160.69;;;28.43
45976;BMP280;31696;42.668;23.322;2023-06-22T07:50:44;95163.50;;;28.51
45976;BMP280;31696;42.668;23.322;2023-06-22T07:52:44;95151.59;;;28.58
45976;BMP280;31696;42.668;23.322;2023-06-22T07:54:44;95156.19;;;28.54
45976;BMP280;31696;42.668;23.322;2023-06-22T07:56:45;95156.13;;;28.50
45976;BMP280;31696;42.668;23.322;2023-06-22T07:58:46;95150.50;;;28.32
45976;BMP280;31696;42.668;23.322;2023-06-22T08:00:47;95152.00;;;28.41
45976;BMP280;31696;42.668;23.322;2023-06-22T08:02:49;95152.72;;;28.45
45976;BMP280;31696;42.668;23.322;2023-06-22T08:04:49;95142.19;;;28.16
45976;BMP280;31696;42.668;23.322;2023-06-22T08:06:50;95152.47;;;27.96
45976;BMP280;31696;42.668;23.322;2023-06-22T08:08:50;95139.34;;;28.08
45976;BMP280;31696;42.668;23.322;2023-06-22T08:10:52;95142.03;;;28.08
45976;BMP280;31696;42.668;23.322;2023-06-22T08:12:53;95145.38;;;28.46
45976;BMP280;31696;42.668;23.322;2023-06-22T08:14:53;95130.88;;;28.57
45976;BMP280;31696;42.668;23.322;2023-06-22T08:16:54;95137.16;;;28.34
45976;BMP280;31696;42.668;23.322;2023-06-22T08:18:54;95134.09;;;28.12
45976;BMP280;31696;42.668;23.322;2023-06-22T08:20:55;95130.31;;;27.55
45976;BMP280;31696;42.668;23.322;2023-06-22T08:22:55;95138.09;;;27.45
45976;BMP280;31696;42.668;23.322;2023-06-22T08:24:57;95140.50;;;27.99
45976;BMP280;31696;42.668;23.322;2023-06-22T08:26:57;95132.06;;;28.12
45976;BMP280;31696;42.668;23.322;2023-06-22T08:28:58;95126.22;;;28.20
45976;BMP280;31696;42.668;23.322;2023-06-22T08:30:59;95127.56;;;28.21
45976;BMP280;31696;42.668;23.322;2023-06-22T08:33:00;95130.09;;;28.13
45976;BMP280;31696;42.668;23.322;2023-06-22T08:35:00;95125.16;;;27.99
45976;BMP280;31696;42.668;23.322;2023-06-22T08:37:00;95125.50;;;27.84
45976;BMP280;31696;42.668;23.322;2023-06-22T08:39:01;95131.00;;;27.90
45976;BMP280;31696;42.668;23.322;2023-06-22T08:41:02;95130.19;;;27.51
45976;BMP280;31696;42.668;23.322;2023-06-22T08:43:03;95134.50;;;27.67
45976;BMP280;31696;42.668;23.322;2023-06-22T08:45:03;95134.41;;;27.62
45976;BMP280;31696;42.668;23.322;2023-06-22T08:47:04;95137.56;;;27.87
45976;BMP280;31696;42.668;23.322;2023-06-22T08:49:04;95131.47;;;27.80
45976;BMP280;31696;42.668;23.322;2023-06-22T08:51:05;95136.47;;;27.64
45976;BMP280;31696;42.668;23.322;2023-06-22T08:53:05;95132.31;;;27.89
45976;BMP280;31696;42.668;23.322;2023-06-22T08:55:06;95139.53;;;28.18
45976;BMP280;31696;42.668;23.322;2023-06-22T08:57:06;95128.06;;;28.47
45976;BMP280;31696;42.668;23.322;2023-06-22T08:59:07;95121.97;;;28.44
45976;BMP280;31696;42.668;23.322;2023-06-22T09:01:07;95117.00;;;28.27
45976;BMP280;31696;42.668;23.322;2023-06-22T09:03:08;95115.72;;;28.30
45976;BMP280;31696;42.668;23.322;2023-06-22T09:05:08;95111.97;;;28.45
45976;BMP280;31696;42.668;23.322;2023-06-22T09:07:09;95106.59;;;28.41
45976;BMP280;31696;42.668;23.322;2023-06-22T09:09:09;95108.78;;;28.52
45976;BMP280;31696;42.668;23.322;2023-06-22T09:11:10;95108.69;;;28.48
45976;BMP280;31696;42.668;23.322;2023-06-22T09:13:10;95107.41;;;28.93
45976;BMP280;31696;42.668;23.322;2023-06-22T09:15:10;95110.22;;;28.59
45976;BMP280;31696;42.668;23.322;2023-06-22T09:17:12;95125.66;;;28.65
45976;BMP280;31696;42.668;23.322;2023-06-22T09:19:12;95120.06;;;28.91
45976;BMP280;31696;42.668;23.322;2023-06-22T09:21:13;95126.00;;;28.85
45976;BMP280;31696;42.668;23.322;2023-06-22T09:23:13;95114.03;;;28.88
45976;BMP280;31696;42.668;23.322;2023-06-22T09:25:14;95105.72;;;29.16
45976;BMP280;31696;42.668;23.322;2023-06-22T09:27:15;95115.41;;;28.91
45976;BMP280;31696;42.668;23.322;2023-06-22T09:29:15;95114.75;;;28.95
45976;BMP280;31696;42.668;23.322;2023-06-22T09:31:15;95126.13;;;28.53
45976;BMP280;31696;42.668;23.322;2023-06-22T09:33:17;95120.63;;;28.43
45976;BMP280;31696;42.668;23.322;2023-06-22T09:35:19;95118.94;;;28.62
45976;BMP280;31696;42.668;23.322;2023-06-22T09:37:20;95105.22;;;28.40
45976;BMP280;31696;42.668;23.322;2023-06-22T09:39:20;95114.16;;;28.54
45976;BMP280;31696;42.668;23.322;2023-06-22T09:41:21;95117.38;;;28.49
45976;BMP280;31696;42.668;23.322;2023-06-22T09:43:22;95120.53;;;28.77
45976;BMP280;31696;42.668;23.322;2023-06-22T09:45:22;95116.13;;;28.52
45976;BMP280;31696;42.668;23.322;2023-06-22T09:47:22;95119.03;;;28.68
45976;BMP280;31696;42.668;23.322;2023-06-22T09:49:23;95108.03;;;28.50
45976;BMP280;31696;42.668;23.322;2023-06-22T09:51:23;95106.59;;;28.41
45976;BMP280;31696;42.668;23.322;2023-06-22T09:53:24;95105.00;;;28.26
45976;BMP280;31696;42.668;23.322;2023-06-22T09:55:24;95101.56;;;28.23
45976;BMP280;31696;42.668;23.322;2023-06-22T09:57:24;95092.72;;;28.11
45976;BMP280;31696;42.668;23.322;2023-06-22T09:59:25;95088.19;;;28.19
45976;BMP280;31696;42.668;23.322;2023-06-22T10:01:25;95095.38;;;28.11
45976;BMP280;31696;42.668;23.322;2023-06-22T10:03:25;95107.13;;;27.98
45976;BMP280;31696;42.668;23.322;2023-06-22T10:05:26;95091.25;;;28.06
45976;BMP280;31696;42.668;23.322;2023-06-22T10:07:26;95097.25;;;28.04
45976;BMP280;31696;42.668;23.322;2023-06-22T10:09:27;95093.97;;;28.08
45976;BMP280;31696;42.668;23.322;2023-06-22T10:11:27;95091.75;;;28.34
45976;BMP280;31696;42.668;23.322;2023-06-22T10:13:30;95092.75;;;28.15
45976;BMP280;31696;42.668;23.322;2023-06-22T10:15:30;95090.19;;;28.21
45976;BMP280;31696;42.668;23.322;2023-06-22T10:17:31;95085.25;;;28.05
45976;BMP280;31696;42.668;23.322;2023-06-22T10:19:31;95075.03;;;27.94
45976;BMP280;31696;42.668;23.322;2023-06-22T10:21:32;95075.09;;;27.96
45976;BMP280;31696;42.668;23.322;2023-06-22T10:23:32;95074.38;;;28.31
45976;BMP280;31696;42.668;23.322;2023-06-22T10:25:33;95064.56;;;28.06
45976;BMP280;31696;42.668;23.322;2023-06-22T10:27:33;95071.78;;;27.99
45976;BMP280;31696;42.668;23.322;2023-06-22T10:29:34;95077.81;;;28.00
45976;BMP280;31696;42.668;23.322;2023-06-22T10:31:34;95099.84;;;28.00
45976;BMP280;31696;42.668;23.322;2023-06-22T10:33:34;95076.63;;;28.07
45976;BMP280;31696;42.668;23.322;2023-06-22T10:35:35;95076.28;;;27.89
45976;BMP280;31696;42.668;23.322;2023-06-22T10:37:37;95070.28;;;27.90
45976;BMP280;31696;42.668;23.322;2023-06-22T10:39:38;95080.50;;;28.02
45976;BMP280;31696;42.668;23.322;2023-06-22T10:41:38;95069.38;;;27.78
45976;BMP280;31696;42.668;23.322;2023-06-22T10:43:39;95064.22;;;27.88
45976;BMP280;31696;42.668;23.322;2023-06-22T10:45:39;95061.75;;;27.96
45976;BMP280;31696;42.668;23.322;2023-06-22T10:47:39;95054.03;;;27.78
45976;BMP280;31696;42.668;23.322;2023-06-22T10:49:42;95061.38;;;27.78
45976;BMP280;31696;42.668;23.322;2023-06-22T10:51:42;95060.38;;;27.97
45976;BMP280;31696;42.668;23.322;2023-06-22T10:53:43;95055.03;;;27.95
45976;BMP280;31696;42.668;23.322;2023-06-22T10:55:43;95057.72;;;27.97
45976;BMP280;31696;42.668;23.322;2023-06-22T10:57:44;95053.41;;;28.17
45976;BMP280;31696;42.668;23.322;2023-06-22T10:59:47;95058.25;;;28.25
45976;BMP280;31696;42.668;23.322;2023-06-22T11:01:47;95060.72;;;28.15
45976;BMP280;31696;42.668;23.322;2023-06-22T11:03:47;95056.94;;;28.28
45976;BMP280;31696;42.668;23.322;2023-06-22T11:05:48;95061.41;;;28.15
45976;BMP280;31696;42.668;23.322;2023-06-22T11:07:48;95061.47;;;28.19
45976;BMP280;31696;42.668;23.322;2023-06-22T11:09:49;95049.44;;;28.18
45976;BMP280;31696;42.668;23.322;2023-06-22T11:11:50;95048.00;;;28.11
45976;BMP280;31696;42.668;23.322;2023-06-22T11:13:52;95048.94;;;27.90
45976;BMP280;31696;42.668;23.322;2023-06-22T11:15:52;95048.59;;;28.08
45976;BMP280;31696;42.668;23.322;2023-06-22T11:17:52;95050.09;;;28.17
45976;BMP280;31696;42.668;23.322;2023-06-22T11:19:53;95044.78;;;28.17
45976;BMP280;31696;42.668;23.322;2023-06-22T11:21:56;95039.63;;;28.29
45976;BMP280;31696;42.668;23.322;2023-06-22T11:23:57;95031.47;;;28.21
45976;BMP280;31696;42.668;23.322;2023-06-22T11:25:57;95035.81;;;28.02
45976;BMP280;31696;42.668;23.322;2023-06-22T11:27:58;95028.25;;;27.89
45976;BMP280;31696;42.668;23.322;2023-06-22T11:29:58;95051.38;;;27.76